sensor_id;sensor_type;location;lat;lon;timestamp;P1;durP1;ratioP1;P2;durP2;ratioP2
23782;SDS011;12071;50.850;4.446;2022-11-15T00:00:49;29.75;;;20.98;;
23782;SDS011;12071;50.850;4.446;2022-11-15T00:03:16;32.70;;;20.80;;
23782;SDS011;12071;50.850;4.446;2022-11-15T00:05:43;34.35;;;20.98;;
23782;SDS011;12071;50.850;4.446;2022-11-15T00:08:09;32.92;;;21.42;;
23782;SDS011;12071;50.850;4.446;2022-11-15T00:10:35;33.72;;;21.10;;
23782;SDS011;12071;50.850;4.446;2022-11-15T00:13:09;27.77;;;20.60;;
23782;SDS011;12071;50.850;4.446;2022-11-15T00:15:36;26.75;;;20.02;;
23782;SDS011;12071;50.850;4.446;2022-11-15T00:18:03;31.88;;;20.40;;
23782;SDS011;12071;50.850;4.446;2022-11-15T00:20:29;28.17;;;20.23;;
23782;SDS011;12071;50.850;4.446;2022-11-15T00:22:55;31.35;;;21.70;;
23782;SDS011;12071;50.850;4.446;2022-11-15T00:25:20;31.52;;;22.58;;
23782;SDS011;12071;50.850;4.446;2022-11-15T00:27:46;30.50;;;20.98;;
23782;SDS011;12071;50.850;4.446;2022-11-15T00:30:12;32.20;;;21.98;;
23782;SDS011;12071;50.850;4.446;2022-11-15T00:32:37;33.85;;;22.88;;
23782;SDS011;12071;50.850;4.446;2022-11-15T00:35:03;35.83;;;21.98;;
23782;SDS011;12071;50.850;4.446;2022-11-15T00:37:29;37.22;;;23.08;;
23782;SDS011;12071;50.850;4.446;2022-11-15T00:39:54;31.67;;;22.90;;
23782;SDS011;12071;50.850;4.446;2022-11-15T00:42:20;34.17;;;23.75;;
23782;SDS011;12071;50.850;4.446;2022-11-15T00:44:45;34.47;;;23.98;;
23782;SDS011;12071;50.850;4.446;2022-11-15T00:47:11;33.30;;;23.65;;
23782;SDS011;12071;50.850;4.446;2022-11-15T00:49:36;34.50;;;23.98;;
23782;SDS011;12071;50.850;4.446;2022-11-15T00:52:02;33.05;;;23.85;;
23782;SDS011;12071;50.850;4.446;2022-11-15T00:54:28;34.78;;;23.13;;
23782;SDS011;12071;50.850;4.446;2022-11-15T00:56:53;34.20;;;22.85;;
23782;SDS011;12071;50.850;4.446;2022-11-15T00:59:19;35.13;;;22.50;;
23782;SDS011;12071;50.850;4.446;2022-11-15T01:01:44;36.53;;;23.15;;
23782;SDS011;12071;50.850;4.446;2022-11-15T01:04:10;39.70;;;24.05;;
23782;SDS011;12071;50.850;4.446;2022-11-15T01:06:35;38.20;;;24.73;;
23782;SDS011;12071;50.850;4.446;2022-11-15T01:09:01;35.45;;;24.88;;
23782;SDS011;12071;50.850;4.446;2022-11-15T01:11:27;42.13;;;25.33;;
23782;SDS011;12071;50.850;4.446;2022-11-15T01:13:52;43.55;;;25.90;;
23782;SDS011;12071;50.850;4.446;2022-11-15T01:16:19;40.67;;;26.15;;
23782;SDS011;12071;50.850;4.446;2022-11-15T01:18:45;37.70;;;26.42;;
23782;SDS011;12071;50.850;4.446;2022-11-15T01:21:12;40.33;;;27.10;;
23782;SDS011;12071;50.850;4.446;2022-11-15T01:23:40;39.13;;;25.77;;
23782;SDS011;12071;50.850;4.446;2022-11-15T01:26:07;38.75;;;26.15;;
23782;SDS011;12071;50.850;4.446;2022-11-15T01:28:35;45.90;;;27.38;;
23782;SDS011;12071;50.850;4.446;2022-11-15T01:31:03;42.53;;;28.10;;
23782;SDS011;12071;50.850;4.446;2022-11-15T01:33:30;47.67;;;26.77;;
23782;SDS011;12071;50.850;4.446;2022-11-15T01:36:02;38.50;;;26.08;;
23782;SDS011;12071;50.850;4.446;2022-11-15T01:38:30;40.03;;;26.17;;
23782;SDS011;12071;50.850;4.446;2022-11-15T01:40:57;42.28;;;25.63;;
23782;SDS011;12071;50.850;4.446;2022-11-15T01:45:55;37.92;;;24.27;;
23782;SDS011;12071;50.850;4.446;2022-11-15T01:50:54;34.97;;;22.90;;
23782;SDS011;12071;50.850;4.446;2022-11-15T01:53:20;34.83;;;21.38;;
23782;SDS011;12071;50.850;4.446;2022-11-15T01:55:48;38.00;;;23.02;;
23782;SDS011;12071;50.850;4.446;2022-11-15T01:58:14;31.45;;;21.52;;
23782;SDS011;12071;50.850;4.446;2022-11-15T02:00:40;26.45;;;20.00;;
23782;SDS011;12071;50.850;4.446;2022-11-15T02:03:05;29.63;;;20.23;;
23782;SDS011;12071;50.850;4.446;2022-11-15T02:05:31;28.55;;;19.85;;
23782;SDS011;12071;50.850;4.446;2022-11-15T02:07:59;30.05;;;19.73;;
23782;SDS011;12071;50.850;4.446;2022-11-15T02:10:27;30.67;;;19.23;;
23782;SDS011;12071;50.850;4.446;2022-11-15T02:12:53;30.20;;;19.08;;
23782;SDS011;12071;50.850;4.446;2022-11-15T02:15:20;25.27;;;17.83;;
23782;SDS011;12071;50.850;4.446;2022-11-15T02:34:43;26.38;;;16.70;;
23782;SDS011;12071;50.850;4.446;2022-11-15T02:37:11;24.52;;;17.05;;
23782;SDS011;12071;50.850;4.446;2022-11-15T02:42:13;23.73;;;16.45;;
23782;SDS011;12071;50.850;4.446;2022-11-15T02:45:02;27.45;;;16.02;;
23782;SDS011;12071;50.850;4.446;2022-11-15T02:47:33;25.20;;;15.80;;
23782;SDS011;12071;50.850;4.446;2022-11-15T02:50:07;28.10;;;16.42;;
23782;SDS011;12071;50.850;4.446;2022-11-15T02:52:34;24.60;;;15.32;;
23782;SDS011;12071;50.850;4.446;2022-11-15T02:55:00;23.40;;;14.95;;
23782;SDS011;12071;50.850;4.446;2022-11-15T03:00:01;27.83;;;15.77;;
23782;SDS011;12071;50.850;4.446;2022-11-15T03:05:09;21.40;;;14.23;;
23782;SDS011;12071;50.850;4.446;2022-11-15T03:12:55;18.92;;;12.45;;
23782;SDS011;12071;50.850;4.446;2022-11-15T03:17:55;19.35;;;12.50;;
23782;SDS011;12071;50.850;4.446;2022-11-15T03:20:45;21.88;;;12.68;;
23782;SDS011;12071;50.850;4.446;2022-11-15T03:23:13;23.25;;;11.43;;
23782;SDS011;12071;50.850;4.446;2022-11-15T03:25:41;15.40;;;11.25;;
23782;SDS011;12071;50.850;4.446;2022-11-15T03:28:09;19.60;;;11.10;;
23782;SDS011;12071;50.850;4.446;2022-11-15T03:30:38;17.33;;;10.02;;
23782;SDS011;12071;50.850;4.446;2022-11-15T03:33:06;14.60;;;10.13;;
23782;SDS011;12071;50.850;4.446;2022-11-15T03:35:34;18.60;;;10.43;;
23782;SDS011;12071;50.850;4.446;2022-11-15T03:40:55;17.83;;;8.88;;
23782;SDS011;12071;50.850;4.446;2022-11-15T03:43:29;12.70;;;7.97;;
23782;SDS011;12071;50.850;4.446;2022-11-15T03:46:05;18.95;;;8.50;;
23782;SDS011;12071;50.850;4.446;2022-11-15T03:48:39;11.68;;;7.60;;
23782;SDS011;12071;50.850;4.446;2022-11-15T03:51:11;14.05;;;7.82;;
23782;SDS011;12071;50.850;4.446;2022-11-15T03:53:37;11.30;;;7.28;;
23782;SDS011;12071;50.850;4.446;2022-11-15T03:56:03;11.52;;;6.70;;
23782;SDS011;12071;50.850;4.446;2022-11-15T03:58:29;10.68;;;7.20;;
23782;SDS011;12071;50.850;4.446;2022-11-15T04:00:54;12.15;;;6.75;;
23782;SDS011;12071;50.850;4.446;2022-11-15T04:03:20;14.43;;;7.57;;
23782;SDS011;12071;50.850;4.446;2022-11-15T04:05:45;12.07;;;7.00;;
23782;SDS011;12071;50.850;4.446;2022-11-15T04:08:11;13.60;;;7.15;;
23782;SDS011;12071;50.850;4.446;2022-11-15T04:10:36;11.60;;;7.10;;
23782;SDS011;12071;50.850;4.446;2022-11-15T04:13:02;10.93;;;6.47;;
23782;SDS011;12071;50.850;4.446;2022-11-15T04:15:28;10.63;;;6.72;;
23782;SDS011;12071;50.850;4.446;2022-11-15T04:17:55;11.73;;;6.95;;
23782;SDS011;12071;50.850;4.446;2022-11-15T04:20:25;10.20;;;7.22;;
23782;SDS011;12071;50.850;4.446;2022-11-15T04:23:11;10.98;;;7.00;;
23782;SDS011;12071;50.850;4.446;2022-11-15T04:25:56;12.02;;;6.68;;
23782;SDS011;12071;50.850;4.446;2022-11-15T04:28:24;15.32;;;6.85;;
23782;SDS011;12071;50.850;4.446;2022-11-15T04:30:50;12.07;;;6.90;;
23782;SDS011;12071;50.850;4.446;2022-11-15T04:33:16;9.68;;;7.63;;
23782;SDS011;12071;50.850;4.446;2022-11-15T04:35:42;11.27;;;7.78;;
23782;SDS011;12071;50.850;4.446;2022-11-15T04:38:08;14.52;;;7.45;;
23782;SDS011;12071;50.850;4.446;2022-11-15T04:40:35;11.57;;;7.38;;
23782;SDS011;12071;50.850;4.446;2022-11-15T04:43:01;14.13;;;7.28;;
23782;SDS011;12071;50.850;4.446;2022-11-15T04:45:27;10.57;;;7.38;;
23782;SDS011;12071;50.850;4.446;2022-11-15T04:47:53;10.18;;;7.70;;
23782;SDS011;12071;50.850;4.446;2022-11-15T04:50:18;11.63;;;7.80;;
23782;SDS011;12071;50.850;4.446;2022-11-15T04:52:49;16.23;;;8.32;;
23782;SDS011;12071;50.850;4.446;2022-11-15T04:55:17;11.75;;;7.50;;
23782;SDS011;12071;50.850;4.446;2022-11-15T04:57:42;13.15;;;7.63;;
23782;SDS011;12071;50.850;4.446;2022-11-15T05:00:10;10.57;;;7.57;;
23782;SDS011;12071;50.850;4.446;2022-11-15T05:02:37;11.23;;;7.57;;
23782;SDS011;12071;50.850;4.446;2022-11-15T05:05:22;12.68;;;7.30;;
23782;SDS011;12071;50.850;4.446;2022-11-15T05:07:49;11.77;;;7.10;;
23782;SDS011;12071;50.850;4.446;2022-11-15T05:10:14;10.05;;;6.75;;
23782;SDS011;12071;50.850;4.446;2022-11-15T05:12:40;11.13;;;7.00;;
23782;SDS011;12071;50.850;4.446;2022-11-15T05:15:07;13.30;;;6.95;;
23782;SDS011;12071;50.850;4.446;2022-11-15T05:17:33;13.73;;;6.85;;
23782;SDS011;12071;50.850;4.446;2022-11-15T05:19:58;13.98;;;6.63;;
23782;SDS011;12071;50.850;4.446;2022-11-15T05:22:24;13.60;;;6.53;;
23782;SDS011;12071;50.850;4.446;2022-11-15T05:24:50;11.55;;;5.82;;
23782;SDS011;12071;50.850;4.446;2022-11-15T05:27:15;9.30;;;5.28;;
23782;SDS011;12071;50.850;4.446;2022-11-15T05:29:41;11.90;;;5.57;;
23782;SDS011;12071;50.850;4.446;2022-11-15T05:32:07;11.82;;;6.20;;
23782;SDS011;12071;50.850;4.446;2022-11-15T05:34:35;11.35;;;6.05;;
23782;SDS011;12071;50.850;4.446;2022-11-15T05:37:00;10.00;;;5.63;;
23782;SDS011;12071;50.850;4.446;2022-11-15T05:39:26;13.63;;;6.32;;
23782;SDS011;12071;50.850;4.446;2022-11-15T05:41:55;8.98;;;4.68;;
23782;SDS011;12071;50.850;4.446;2022-11-15T05:44:27;10.73;;;5.30;;
23782;SDS011;12071;50.850;4.446;2022-11-15T05:46:53;10.88;;;4.80;;
23782;SDS011;12071;50.850;4.446;2022-11-15T05:49:21;11.30;;;5.53;;
23782;SDS011;12071;50.850;4.446;2022-11-15T05:51:50;11.98;;;5.22;;
23782;SDS011;12071;50.850;4.446;2022-11-15T05:54:18;13.77;;;5.30;;
23782;SDS011;12071;50.850;4.446;2022-11-15T05:56:44;11.88;;;5.28;;
23782;SDS011;12071;50.850;4.446;2022-11-15T05:59:11;11.23;;;5.38;;
23782;SDS011;12071;50.850;4.446;2022-11-15T06:01:37;13.07;;;5.50;;
23782;SDS011;12071;50.850;4.446;2022-11-15T06:04:03;14.25;;;5.88;;
23782;SDS011;12071;50.850;4.446;2022-11-15T06:06:29;11.95;;;6.60;;
23782;SDS011;12071;50.850;4.446;2022-11-15T06:08:54;14.82;;;6.05;;
23782;SDS011;12071;50.850;4.446;2022-11-15T06:11:20;13.60;;;6.28;;
23782;SDS011;12071;50.850;4.446;2022-11-15T06:13:46;12.55;;;6.25;;
23782;SDS011;12071;50.850;4.446;2022-11-15T06:16:11;9.40;;;6.05;;
23782;SDS011;12071;50.850;4.446;2022-11-15T06:18:37;9.80;;;5.80;;
23782;SDS011;12071;50.850;4.446;2022-11-15T06:21:03;14.75;;;6.30;;
23782;SDS011;12071;50.850;4.446;2022-11-15T06:23:33;12.88;;;5.53;;
23782;SDS011;12071;50.850;4.446;2022-11-15T06:26:00;14.32;;;5.80;;
23782;SDS011;12071;50.850;4.446;2022-11-15T06:28:30;11.38;;;6.20;;
23782;SDS011;12071;50.850;4.446;2022-11-15T06:31:08;11.95;;;5.78;;
23782;SDS011;12071;50.850;4.446;2022-11-15T06:33:34;10.07;;;6.03;;
23782;SDS011;12071;50.850;4.446;2022-11-15T06:36:03;12.15;;;6.22;;
23782;SDS011;12071;50.850;4.446;2022-11-15T06:38:31;10.63;;;6.03;;
23782;SDS011;12071;50.850;4.446;2022-11-15T06:41:07;10.88;;;5.53;;
23782;SDS011;12071;50.850;4.446;2022-11-15T06:43:34;13.52;;;6.07;;
23782;SDS011;12071;50.850;4.446;2022-11-15T06:46:00;13.60;;;5.28;;
23782;SDS011;12071;50.850;4.446;2022-11-15T06:48:27;13.18;;;5.25;;
23782;SDS011;12071;50.850;4.446;2022-11-15T06:50:54;13.43;;;5.22;;
23782;SDS011;12071;50.850;4.446;2022-11-15T06:53:21;10.55;;;4.88;;
23782;SDS011;12071;50.850;4.446;2022-11-15T06:55:48;9.32;;;5.35;;
23782;SDS011;12071;50.850;4.446;2022-11-15T06:58:13;9.20;;;5.13;;
23782;SDS011;12071;50.850;4.446;2022-11-15T07:00:39;11.95;;;5.38;;
23782;SDS011;12071;50.850;4.446;2022-11-15T07:03:06;15.20;;;5.75;;
23782;SDS011;12071;50.850;4.446;2022-11-15T07:05:31;13.98;;;5.45;;
23782;SDS011;12071;50.850;4.446;2022-11-15T07:07:57;10.88;;;5.35;;
23782;SDS011;12071;50.850;4.446;2022-11-15T07:10:24;10.55;;;5.50;;
23782;SDS011;12071;50.850;4.446;2022-11-15T07:12:53;13.88;;;5.90;;
23782;SDS011;12071;50.850;4.446;2022-11-15T07:15:21;13.25;;;5.95;;
23782;SDS011;12071;50.850;4.446;2022-11-15T07:17:48;9.73;;;6.28;;
23782;SDS011;12071;50.850;4.446;2022-11-15T07:20:14;14.07;;;6.03;;
23782;SDS011;12071;50.850;4.446;2022-11-15T07:22:41;12.27;;;5.72;;
23782;SDS011;12071;50.850;4.446;2022-11-15T07:25:07;11.95;;;5.68;;
23782;SDS011;12071;50.850;4.446;2022-11-15T07:27:33;12.40;;;6.10;;
23782;SDS011;12071;50.850;4.446;2022-11-15T07:29:59;8.63;;;5.70;;
23782;SDS011;12071;50.850;4.446;2022-11-15T07:32:24;12.43;;;5.95;;
23782;SDS011;12071;50.850;4.446;2022-11-15T07:34:50;11.65;;;6.18;;
23782;SDS011;12071;50.850;4.446;2022-11-15T07:37:16;10.65;;;6.05;;
23782;SDS011;12071;50.850;4.446;2022-11-15T07:39:42;9.13;;;5.65;;
23782;SDS011;12071;50.850;4.446;2022-11-15T07:42:07;13.85;;;6.20;;
23782;SDS011;12071;50.850;4.446;2022-11-15T07:44:52;10.07;;;5.88;;
23782;SDS011;12071;50.850;4.446;2022-11-15T07:47:18;11.38;;;6.07;;
23782;SDS011;12071;50.850;4.446;2022-11-15T07:49:45;9.98;;;5.43;;
23782;SDS011;12071;50.850;4.446;2022-11-15T07:52:11;10.10;;;5.32;;
23782;SDS011;12071;50.850;4.446;2022-11-15T07:54:37;10.43;;;5.28;;
23782;SDS011;12071;50.850;4.446;2022-11-15T07:57:03;11.63;;;5.10;;
23782;SDS011;12071;50.850;4.446;2022-11-15T07:59:29;7.38;;;4.78;;
23782;SDS011;12071;50.850;4.446;2022-11-15T08:01:55;8.02;;;4.78;;
23782;SDS011;12071;50.850;4.446;2022-11-15T08:04:20;8.15;;;4.43;;
23782;SDS011;12071;50.850;4.446;2022-11-15T08:06:46;7.30;;;4.28;;
23782;SDS011;12071;50.850;4.446;2022-11-15T08:09:12;8.38;;;4.13;;
23782;SDS011;12071;50.850;4.446;2022-11-15T08:11:37;12.05;;;3.97;;
23782;SDS011;12071;50.850;4.446;2022-11-15T08:14:03;9.50;;;3.80;;
23782;SDS011;12071;50.850;4.446;2022-11-15T08:16:29;6.82;;;3.70;;
23782;SDS011;12071;50.850;4.446;2022-11-15T08:18:54;9.75;;;3.50;;
23782;SDS011;12071;50.850;4.446;2022-11-15T08:21:20;7.63;;;3.25;;
23782;SDS011;12071;50.850;4.446;2022-11-15T08:23:46;6.35;;;3.13;;
23782;SDS011;12071;50.850;4.446;2022-11-15T08:26:12;7.93;;;2.85;;
23782;SDS011;12071;50.850;4.446;2022-11-15T08:28:38;8.05;;;2.83;;
23782;SDS011;12071;50.850;4.446;2022-11-15T08:31:03;5.32;;;2.38;;
23782;SDS011;12071;50.850;4.446;2022-11-15T08:33:30;8.98;;;2.58;;
23782;SDS011;12071;50.850;4.446;2022-11-15T08:35:57;6.82;;;2.85;;
23782;SDS011;12071;50.850;4.446;2022-11-15T08:38:23;6.72;;;2.80;;
23782;SDS011;12071;50.850;4.446;2022-11-15T08:40:50;10.75;;;2.42;;
23782;SDS011;12071;50.850;4.446;2022-11-15T08:43:18;4.68;;;2.75;;
23782;SDS011;12071;50.850;4.446;2022-11-15T08:45:43;7.00;;;2.70;;
23782;SDS011;12071;50.850;4.446;2022-11-15T08:48:09;6.93;;;2.53;;
23782;SDS011;12071;50.850;4.446;2022-11-15T08:50:35;8.35;;;2.22;;
23782;SDS011;12071;50.850;4.446;2022-11-15T08:53:04;9.57;;;2.63;;
23782;SDS011;12071;50.850;4.446;2022-11-15T08:55:31;6.68;;;2.20;;
23782;SDS011;12071;50.850;4.446;2022-11-15T08:57:57;10.00;;;2.50;;
23782;SDS011;12071;50.850;4.446;2022-11-15T09:00:23;6.55;;;2.00;;
23782;SDS011;12071;50.850;4.446;2022-11-15T09:02:48;8.20;;;2.20;;
23782;SDS011;12071;50.850;4.446;2022-11-15T09:05:14;6.28;;;2.22;;
23782;SDS011;12071;50.850;4.446;2022-11-15T09:07:40;2.88;;;1.70;;
23782;SDS011;12071;50.850;4.446;2022-11-15T09:10:06;5.75;;;1.63;;
23782;SDS011;12071;50.850;4.446;2022-11-15T09:12:32;6.10;;;1.90;;
23782;SDS011;12071;50.850;4.446;2022-11-15T09:14:57;5.65;;;1.50;;
23782;SDS011;12071;50.850;4.446;2022-11-15T09:17:23;8.98;;;1.55;;
23782;SDS011;12071;50.850;4.446;2022-11-15T09:19:49;6.35;;;1.70;;
23782;SDS011;12071;50.850;4.446;2022-11-15T09:22:14;5.82;;;1.73;;
23782;SDS011;12071;50.850;4.446;2022-11-15T09:24:40;5.28;;;2.00;;
23782;SDS011;12071;50.850;4.446;2022-11-15T09:27:05;7.13;;;1.67;;
23782;SDS011;12071;50.850;4.446;2022-11-15T09:29:31;11.05;;;2.00;;
23782;SDS011;12071;50.850;4.446;2022-11-15T09:31:56;3.92;;;1.20;;
23782;SDS011;12071;50.850;4.446;2022-11-15T09:34:22;17.23;;;2.13;;
23782;SDS011;12071;50.850;4.446;2022-11-15T09:36:48;5.72;;;1.27;;
23782;SDS011;12071;50.850;4.446;2022-11-15T09:39:13;7.18;;;1.40;;
23782;SDS011;12071;50.850;4.446;2022-11-15T09:41:50;8.13;;;1.40;;
23782;SDS011;12071;50.850;4.446;2022-11-15T09:46:54;3.50;;;1.15;;
23782;SDS011;12071;50.850;4.446;2022-11-15T09:49:39;4.70;;;1.30;;
23782;SDS011;12071;50.850;4.446;2022-11-15T09:52:06;6.85;;;1.63;;
23782;SDS011;12071;50.850;4.446;2022-11-15T09:54:35;5.72;;;1.35;;
23782;SDS011;12071;50.850;4.446;2022-11-15T09:57:10;10.40;;;1.60;;
23782;SDS011;12071;50.850;4.446;2022-11-15T10:03:33;7.72;;;1.30;;
23782;SDS011;12071;50.850;4.446;2022-11-15T10:05:34;8.60;;;1.58;;
23782;SDS011;12071;50.850;4.446;2022-11-15T10:10:44;7.05;;;1.48;;
23782;SDS011;12071;50.850;4.446;2022-11-15T10:13:22;8.27;;;1.67;;
23782;SDS011;12071;50.850;4.446;2022-11-15T10:21:29;5.32;;;1.08;;
23782;SDS011;12071;50.850;4.446;2022-11-15T10:24:12;7.95;;;1.60;;
23782;SDS011;12071;50.850;4.446;2022-11-15T10:26:46;7.20;;;1.10;;
23782;SDS011;12071;50.850;4.446;2022-11-15T10:29:22;3.55;;;1.40;;
23782;SDS011;12071;50.850;4.446;2022-11-15T10:31:49;7.07;;;1.20;;
23782;SDS011;12071;50.850;4.446;2022-11-15T10:34:16;5.72;;;1.25;;
23782;SDS011;12071;50.850;4.446;2022-11-15T10:36:56;6.20;;;1.10;;
23782;SDS011;12071;50.850;4.446;2022-11-15T10:39:23;5.78;;;1.17;;
23782;SDS011;12071;50.850;4.446;2022-11-15T10:41:49;12.25;;;1.63;;
23782;SDS011;12071;50.850;4.446;2022-11-15T10:46:41;7.00;;;0.98;;
23782;SDS011;12071;50.850;4.446;2022-11-15T10:49:15;4.38;;;1.23;;
23782;SDS011;12071;50.850;4.446;2022-11-15T10:57:23;7.45;;;1.38;;
23782;SDS011;12071;50.850;4.446;2022-11-15T10:59:53;9.35;;;1.00;;
23782;SDS011;12071;50.850;4.446;2022-11-15T11:02:40;5.88;;;1.30;;
23782;SDS011;12071;50.850;4.446;2022-11-15T11:08:20;6.93;;;1.58;;
23782;SDS011;12071;50.850;4.446;2022-11-15T11:10:55;7.90;;;1.40;;
23782;SDS011;12071;50.850;4.446;2022-11-15T11:13:26;4.88;;;1.02;;
23782;SDS011;12071;50.850;4.446;2022-11-15T11:18:30;5.85;;;1.50;;
23782;SDS011;12071;50.850;4.446;2022-11-15T11:21:03;6.85;;;1.13;;
23782;SDS011;12071;50.850;4.446;2022-11-15T11:23:45;3.92;;;1.10;;
23782;SDS011;12071;50.850;4.446;2022-11-15T11:26:29;3.28;;;1.10;;
23782;SDS011;12071;50.850;4.446;2022-11-15T11:29:35;6.60;;;1.60;;
23782;SDS011;12071;50.850;4.446;2022-11-15T11:38:04;7.65;;;1.40;;
23782;SDS011;12071;50.850;4.446;2022-11-15T11:40:32;6.55;;;1.00;;
23782;SDS011;12071;50.850;4.446;2022-11-15T11:43:13;6.10;;;0.90;;
23782;SDS011;12071;50.850;4.446;2022-11-15T11:48:45;6.68;;;1.20;;
23782;SDS011;12071;50.850;4.446;2022-11-15T11:56:29;6.72;;;1.38;;
23782;SDS011;12071;50.850;4.446;2022-11-15T11:59:05;9.57;;;1.17;;
23782;SDS011;12071;50.850;4.446;2022-11-15T12:01:37;7.10;;;1.15;;
23782;SDS011;12071;50.850;4.446;2022-11-15T12:07:11;6.80;;;1.10;;
23782;SDS011;12071;50.850;4.446;2022-11-15T12:15:39;4.40;;;0.85;;
23782;SDS011;12071;50.850;4.446;2022-11-15T12:18:12;10.13;;;1.10;;
23782;SDS011;12071;50.850;4.446;2022-11-15T12:20:40;7.47;;;1.00;;
23782;SDS011;12071;50.850;4.446;2022-11-15T12:23:20;4.70;;;0.80;;
23782;SDS011;12071;50.850;4.446;2022-11-15T12:25:58;4.82;;;0.88;;
23782;SDS011;12071;50.850;4.446;2022-11-15T12:33:44;3.53;;;0.80;;
23782;SDS011;12071;50.850;4.446;2022-11-15T12:41:26;4.03;;;1.30;;
23782;SDS011;12071;50.850;4.446;2022-11-15T12:43:54;6.45;;;1.88;;
23782;SDS011;12071;50.850;4.446;2022-11-15T12:49:10;5.40;;;1.20;;
23782;SDS011;12071;50.850;4.446;2022-11-15T13:02:33;3.35;;;1.30;;
23782;SDS011;12071;50.850;4.446;2022-11-15T13:17:37;3.95;;;1.27;;
23782;SDS011;12071;50.850;4.446;2022-11-15T13:20:18;5.75;;;1.30;;
23782;SDS011;12071;50.850;4.446;2022-11-15T13:28:11;4.80;;;1.00;;
23782;SDS011;12071;50.850;4.446;2022-11-15T13:31:03;2.88;;;0.95;;
23782;SDS011;12071;50.850;4.446;2022-11-15T13:33:38;4.10;;;1.20;;
23782;SDS011;12071;50.850;4.446;2022-11-15T13:36:13;3.03;;;1.08;;
23782;SDS011;12071;50.850;4.446;2022-11-15T13:38:43;5.43;;;1.20;;
23782;SDS011;12071;50.850;4.446;2022-11-15T13:41:20;2.70;;;0.95;;
23782;SDS011;12071;50.850;4.446;2022-11-15T13:43:48;2.65;;;1.00;;
23782;SDS011;12071;50.850;4.446;2022-11-15T13:46:24;4.07;;;1.10;;
23782;SDS011;12071;50.850;4.446;2022-11-15T13:49:02;4.35;;;1.00;;
23782;SDS011;12071;50.850;4.446;2022-11-15T13:56:45;4.38;;;1.20;;
23782;SDS011;12071;50.850;4.446;2022-11-15T13:59:25;2.50;;;0.98;;
23782;SDS011;12071;50.850;4.446;2022-11-15T14:01:55;7.50;;;1.13;;
23782;SDS011;12071;50.850;4.446;2022-11-15T14:04:23;3.78;;;1.10;;
23782;SDS011;12071;50.850;4.446;2022-11-15T14:06:54;2.30;;;0.98;;
23782;SDS011;12071;50.850;4.446;2022-11-15T14:09:38;2.22;;;0.90;;
23782;SDS011;12071;50.850;4.446;2022-11-15T14:17:57;3.42;;;1.00;;
23782;SDS011;12071;50.850;4.446;2022-11-15T14:22:56;2.00;;;1.25;;
23782;SDS011;12071;50.850;4.446;2022-11-15T14:25:27;3.45;;;1.33;;
23782;SDS011;12071;50.850;4.446;2022-11-15T14:30:34;6.00;;;1.23;;
23782;SDS011;12071;50.850;4.446;2022-11-15T14:33:00;4.28;;;0.95;;
23782;SDS011;12071;50.850;4.446;2022-11-15T14:35:26;7.28;;;1.15;;
23782;SDS011;12071;50.850;4.446;2022-11-15T14:37:51;1.63;;;1.00;;
23782;SDS011;12071;50.850;4.446;2022-11-15T14:40:18;2.17;;;1.00;;
23782;SDS011;12071;50.850;4.446;2022-11-15T14:42:46;3.95;;;1.25;;
23782;SDS011;12071;50.850;4.446;2022-11-15T14:45:17;4.05;;;1.20;;
23782;SDS011;12071;50.850;4.446;2022-11-15T14:47:45;2.65;;;1.20;;
23782;SDS011;12071;50.850;4.446;2022-11-15T14:50:18;5.88;;;1.35;;
23782;SDS011;12071;50.850;4.446;2022-11-15T14:52:45;1.90;;;1.10;;
23782;SDS011;12071;50.850;4.446;2022-11-15T14:55:24;1.75;;;0.90;;
23782;SDS011;12071;50.850;4.446;2022-11-15T14:57:50;3.00;;;1.40;;
23782;SDS011;12071;50.850;4.446;2022-11-15T15:00:17;4.78;;;1.25;;
23782;SDS011;12071;50.850;4.446;2022-11-15T15:02:44;4.00;;;1.80;;
23782;SDS011;12071;50.850;4.446;2022-11-15T15:05:32;3.15;;;1.45;;
23782;SDS011;12071;50.850;4.446;2022-11-15T15:07:58;2.85;;;1.45;;
23782;SDS011;12071;50.850;4.446;2022-11-15T15:10:24;1.67;;;1.10;;
23782;SDS011;12071;50.850;4.446;2022-11-15T15:12:50;2.72;;;1.50;;
23782;SDS011;12071;50.850;4.446;2022-11-15T15:15:17;3.80;;;1.55;;
23782;SDS011;12071;50.850;4.446;2022-11-15T15:17:48;3.55;;;1.42;;
23782;SDS011;12071;50.850;4.446;2022-11-15T15:20:14;4.65;;;1.60;;
23782;SDS011;12071;50.850;4.446;2022-11-15T15:22:40;2.63;;;1.40;;
23782;SDS011;12071;50.850;4.446;2022-11-15T15:28:08;3.95;;;1.58;;
23782;SDS011;12071;50.850;4.446;2022-11-15T15:30:34;3.25;;;1.58;;
23782;SDS011;12071;50.850;4.446;2022-11-15T15:32:59;3.45;;;1.42;;
23782;SDS011;12071;50.850;4.446;2022-11-15T15:35:27;1.88;;;1.65;;
23782;SDS011;12071;50.850;4.446;2022-11-15T15:37:57;2.53;;;1.60;;
23782;SDS011;12071;50.850;4.446;2022-11-15T15:40:23;2.80;;;1.67;;
23782;SDS011;12071;50.850;4.446;2022-11-15T15:42:50;4.10;;;1.60;;
23782;SDS011;12071;50.850;4.446;2022-11-15T15:45:16;1.70;;;1.55;;
23782;SDS011;12071;50.850;4.446;2022-11-15T15:47:43;3.05;;;1.77;;
23782;SDS011;12071;50.850;4.446;2022-11-15T15:50:25;3.78;;;1.98;;
23782;SDS011;12071;50.850;4.446;2022-11-15T15:52:53;3.08;;;1.90;;
23782;SDS011;12071;50.850;4.446;2022-11-15T15:55:20;4.07;;;1.88;;
23782;SDS011;12071;50.850;4.446;2022-11-15T15:57:46;2.53;;;1.75;;
23782;SDS011;12071;50.850;4.446;2022-11-15T16:00:12;4.65;;;2.20;;
23782;SDS011;12071;50.850;4.446;2022-11-15T16:02:38;3.10;;;2.00;;
23782;SDS011;12071;50.850;4.446;2022-11-15T16:05:05;3.28;;;2.20;;
23782;SDS011;12071;50.850;4.446;2022-11-15T16:07:31;5.38;;;2.20;;
23782;SDS011;12071;50.850;4.446;2022-11-15T16:09:57;5.25;;;2.13;;
23782;SDS011;12071;50.850;4.446;2022-11-15T16:12:29;4.75;;;2.70;;
23782;SDS011;12071;50.850;4.446;2022-11-15T16:14:56;5.03;;;2.30;;
23782;SDS011;12071;50.850;4.446;2022-11-15T16:17:22;5.45;;;2.17;;
23782;SDS011;12071;50.850;4.446;2022-11-15T16:19:52;3.28;;;2.20;;
23782;SDS011;12071;50.850;4.446;2022-11-15T16:22:18;6.00;;;2.40;;
23782;SDS011;12071;50.850;4.446;2022-11-15T16:24:44;3.80;;;2.58;;
23782;SDS011;12071;50.850;4.446;2022-11-15T16:27:12;4.05;;;2.70;;
23782;SDS011;12071;50.850;4.446;2022-11-15T16:29:43;4.15;;;2.40;;
23782;SDS011;12071;50.850;4.446;2022-11-15T16:32:09;2.97;;;2.30;;
23782;SDS011;12071;50.850;4.446;2022-11-15T16:34:35;5.75;;;2.70;;
23782;SDS011;12071;50.850;4.446;2022-11-15T16:37:01;5.32;;;2.90;;
23782;SDS011;12071;50.850;4.446;2022-11-15T16:39:27;7.10;;;3.10;;
23782;SDS011;12071;50.850;4.446;2022-11-15T16:41:56;5.18;;;2.63;;
23782;SDS011;12071;50.850;4.446;2022-11-15T16:44:25;4.53;;;3.58;;
23782;SDS011;12071;50.850;4.446;2022-11-15T16:46:51;6.07;;;3.28;;
23782;SDS011;12071;50.850;4.446;2022-11-15T16:49:20;6.45;;;3.15;;
23782;SDS011;12071;50.850;4.446;2022-11-15T16:51:49;5.35;;;3.10;;
23782;SDS011;12071;50.850;4.446;2022-11-15T16:54:15;4.68;;;3.05;;
23782;SDS011;12071;50.850;4.446;2022-11-15T16:56:41;3.70;;;2.70;;
23782;SDS011;12071;50.850;4.446;2022-11-15T16:59:08;4.45;;;3.10;;
23782;SDS011;12071;50.850;4.446;2022-11-15T17:01:39;4.68;;;3.00;;
23782;SDS011;12071;50.850;4.446;2022-11-15T17:04:14;9.43;;;3.03;;
23782;SDS011;12071;50.850;4.446;2022-11-15T17:06:42;4.90;;;2.90;;
23782;SDS011;12071;50.850;4.446;2022-11-15T17:09:16;4.88;;;3.13;;
23782;SDS011;12071;50.850;4.446;2022-11-15T17:11:44;5.55;;;2.88;;
23782;SDS011;12071;50.850;4.446;2022-11-15T17:14:11;4.05;;;3.17;;
23782;SDS011;12071;50.850;4.446;2022-11-15T17:16:37;4.25;;;3.20;;
23782;SDS011;12071;50.850;4.446;2022-11-15T17:19:16;4.43;;;3.25;;